sensor_id;sensor_type;location;lat;lon;timestamp;P1;durP1;ratioP1;P2;durP2;ratioP2
57107;SDS011;42987;52.916;6.542;2023-07-13T00:01:28;12.35;;;3.45;;
57107;SDS011;42987;52.916;6.542;2023-07-13T00:03:56;13.00;;;3.70;;
57107;SDS011;42987;52.916;6.542;2023-07-13T00:06:22;12.68;;;3.03;;
57107;SDS011;42987;52.916;6.542;2023-07-13T00:08:48;8.18;;;2.65;;
57107;SDS011;42987;52.916;6.542;2023-07-13T00:11:14;12.35;;;3.95;;
57107;SDS011;42987;52.916;6.542;2023-07-13T00:13:41;10.20;;;3.45;;
57107;SDS011;42987;52.916;6.542;2023-07-13T00:16:07;13.02;;;3.70;;
57107;SDS011;42987;52.916;6.542;2023-07-13T00:18:34;11.30;;;3.30;;
57107;SDS011;42987;52.916;6.542;2023-07-13T00:21:01;11.02;;;3.20;;
57107;SDS011;42987;52.916;6.542;2023-07-13T00:23:36;11.25;;;3.22;;
57107;SDS011;42987;52.916;6.542;2023-07-13T00:26:05;11.57;;;3.70;;
57107;SDS011;42987;52.916;6.542;2023-07-13T00:28:33;9.95;;;3.38;;
57107;SDS011;42987;52.916;6.542;2023-07-13T00:30:59;10.25;;;3.60;;
57107;SDS011;42987;52.916;6.542;2023-07-13T00:33:26;11.10;;;3.80;;
57107;SDS011;42987;52.916;6.542;2023-07-13T00:35:53;10.50;;;3.38;;
57107;SDS011;42987;52.916;6.542;2023-07-13T00:38:22;10.68;;;3.28;;
57107;SDS011;42987;52.916;6.542;2023-07-13T00:40:49;12.73;;;3.17;;
57107;SDS011;42987;52.916;6.542;2023-07-13T00:43:19;10.50;;;3.63;;
57107;SDS011;42987;52.916;6.542;2023-07-13T00:48:13;10.52;;;3.30;;
57107;SDS011;42987;52.916;6.542;2023-07-13T00:50:43;13.25;;;4.07;;
57107;SDS011;42987;52.916;6.542;2023-07-13T00:53:10;15.88;;;4.00;;
57107;SDS011;42987;52.916;6.542;2023-07-13T00:55:36;12.93;;;4.18;;
57107;SDS011;42987;52.916;6.542;2023-07-13T00:58:03;10.32;;;3.08;;
57107;SDS011;42987;52.916;6.542;2023-07-13T01:00:31;11.23;;;3.53;;
57107;SDS011;42987;52.916;6.542;2023-07-13T01:03:03;11.95;;;3.88;;
57107;SDS011;42987;52.916;6.542;2023-07-13T01:05:30;14.80;;;3.72;;
57107;SDS011;42987;52.916;6.542;2023-07-13T01:08:00;12.98;;;3.58;;
57107;SDS011;42987;52.916;6.542;2023-07-13T01:10:30;12.88;;;3.88;;
57107;SDS011;42987;52.916;6.542;2023-07-13T01:13:03;10.43;;;3.78;;
57107;SDS011;42987;52.916;6.542;2023-07-13T01:15:41;9.23;;;3.92;;
57107;SDS011;42987;52.916;6.542;2023-07-13T01:18:12;11.85;;;3.42;;
57107;SDS011;42987;52.916;6.542;2023-07-13T01:23:22;11.20;;;3.85;;
57107;SDS011;42987;52.916;6.542;2023-07-13T01:25:50;14.68;;;3.72;;
57107;SDS011;42987;52.916;6.542;2023-07-13T01:28:17;13.13;;;4.20;;
57107;SDS011;42987;52.916;6.542;2023-07-13T01:30:43;12.13;;;3.70;;
57107;SDS011;42987;52.916;6.542;2023-07-13T01:33:11;12.40;;;3.95;;
57107;SDS011;42987;52.916;6.542;2023-07-13T01:35:39;8.85;;;3.78;;
57107;SDS011;42987;52.916;6.542;2023-07-13T01:38:05;12.45;;;3.92;;
57107;SDS011;42987;52.916;6.542;2023-07-13T01:40:31;10.68;;;3.63;;
57107;SDS011;42987;52.916;6.542;2023-07-13T01:42:58;12.00;;;3.88;;
57107;SDS011;42987;52.916;6.542;2023-07-13T01:45:23;7.85;;;3.40;;
57107;SDS011;42987;52.916;6.542;2023-07-13T01:47:49;10.75;;;3.80;;
57107;SDS011;42987;52.916;6.542;2023-07-13T01:50:15;9.63;;;3.60;;
57107;SDS011;42987;52.916;6.542;2023-07-13T01:52:41;12.27;;;3.90;;
57107;SDS011;42987;52.916;6.542;2023-07-13T01:55:10;11.05;;;3.63;;
57107;SDS011;42987;52.916;6.542;2023-07-13T01:57:36;11.60;;;3.92;;
57107;SDS011;42987;52.916;6.542;2023-07-13T02:00:05;11.02;;;3.75;;
57107;SDS011;42987;52.916;6.542;2023-07-13T02:02:35;9.93;;;3.80;;
57107;SDS011;42987;52.916;6.542;2023-07-13T02:05:01;10.27;;;3.72;;
57107;SDS011;42987;52.916;6.542;2023-07-13T02:07:27;15.63;;;4.20;;
57107;SDS011;42987;52.916;6.542;2023-07-13T02:09:52;9.35;;;4.00;;
57107;SDS011;42987;52.916;6.542;2023-07-13T02:12:18;12.20;;;4.18;;
57107;SDS011;42987;52.916;6.542;2023-07-13T02:14:44;11.10;;;4.05;;
57107;SDS011;42987;52.916;6.542;2023-07-13T02:17:10;11.25;;;3.63;;
57107;SDS011;42987;52.916;6.542;2023-07-13T02:19:36;11.60;;;4.85;;
57107;SDS011;42987;52.916;6.542;2023-07-13T02:22:02;9.68;;;3.75;;
57107;SDS011;42987;52.916;6.542;2023-07-13T02:24:28;14.00;;;4.35;;
57107;SDS011;42987;52.916;6.542;2023-07-13T02:26:53;13.90;;;4.65;;
57107;SDS011;42987;52.916;6.542;2023-07-13T02:29:19;12.27;;;4.82;;
57107;SDS011;42987;52.916;6.542;2023-07-13T02:31:45;13.00;;;4.43;;
57107;SDS011;42987;52.916;6.542;2023-07-13T02:34:11;12.90;;;4.55;;
57107;SDS011;42987;52.916;6.542;2023-07-13T02:36:36;12.40;;;3.90;;
57107;SDS011;42987;52.916;6.542;2023-07-13T02:39:03;15.20;;;4.15;;
57107;SDS011;42987;52.916;6.542;2023-07-13T02:41:30;16.73;;;4.57;;
57107;SDS011;42987;52.916;6.542;2023-07-13T02:43:57;12.32;;;4.07;;
57107;SDS011;42987;52.916;6.542;2023-07-13T02:46:32;14.13;;;4.18;;
57107;SDS011;42987;52.916;6.542;2023-07-13T02:48:59;14.65;;;4.25;;
57107;SDS011;42987;52.916;6.542;2023-07-13T02:51:25;11.63;;;4.57;;
57107;SDS011;42987;52.916;6.542;2023-07-13T02:53:51;11.60;;;4.20;;
57107;SDS011;42987;52.916;6.542;2023-07-13T02:56:22;13.27;;;4.32;;
57107;SDS011;42987;52.916;6.542;2023-07-13T02:58:49;13.13;;;4.40;;
57107;SDS011;42987;52.916;6.542;2023-07-13T03:01:15;11.93;;;4.80;;
57107;SDS011;42987;52.916;6.542;2023-07-13T03:03:44;11.10;;;4.18;;
57107;SDS011;42987;52.916;6.542;2023-07-13T03:06:11;13.30;;;4.80;;
57107;SDS011;42987;52.916;6.542;2023-07-13T03:08:38;12.65;;;4.43;;
57107;SDS011;42987;52.916;6.542;2023-07-13T03:11:05;11.98;;;4.45;;
57107;SDS011;42987;52.916;6.542;2023-07-13T03:13:33;13.40;;;4.50;;
57107;SDS011;42987;52.916;6.542;2023-07-13T03:15:59;15.57;;;4.47;;
57107;SDS011;42987;52.916;6.542;2023-07-13T03:18:26;17.42;;;5.07;;
57107;SDS011;42987;52.916;6.542;2023-07-13T03:20:53;13.38;;;4.60;;
57107;SDS011;42987;52.916;6.542;2023-07-13T03:23:19;12.90;;;4.25;;
57107;SDS011;42987;52.916;6.542;2023-07-13T03:25:46;12.40;;;4.25;;
57107;SDS011;42987;52.916;6.542;2023-07-13T03:28:12;15.27;;;4.43;;
57107;SDS011;42987;52.916;6.542;2023-07-13T03:30:38;11.77;;;4.50;;
57107;SDS011;42987;52.916;6.542;2023-07-13T03:33:04;12.45;;;4.15;;
57107;SDS011;42987;52.916;6.542;2023-07-13T03:35:30;13.15;;;4.32;;
57107;SDS011;42987;52.916;6.542;2023-07-13T03:37:57;14.13;;;4.28;;
57107;SDS011;42987;52.916;6.542;2023-07-13T03:40:24;15.52;;;5.40;;
57107;SDS011;42987;52.916;6.542;2023-07-13T03:42:51;13.55;;;4.45;;
57107;SDS011;42987;52.916;6.542;2023-07-13T03:45:17;13.25;;;4.35;;
57107;SDS011;42987;52.916;6.542;2023-07-13T03:47:43;12.32;;;4.63;;
57107;SDS011;42987;52.916;6.542;2023-07-13T03:50:09;13.55;;;4.22;;
57107;SDS011;42987;52.916;6.542;2023-07-13T03:52:38;10.35;;;3.90;;
57107;SDS011;42987;52.916;6.542;2023-07-13T03:55:04;13.77;;;4.30;;
57107;SDS011;42987;52.916;6.542;2023-07-13T03:57:31;14.23;;;5.13;;
57107;SDS011;42987;52.916;6.542;2023-07-13T03:59:57;12.75;;;4.20;;
57107;SDS011;42987;52.916;6.542;2023-07-13T04:02:22;13.23;;;5.25;;
57107;SDS011;42987;52.916;6.542;2023-07-13T04:04:48;11.85;;;4.55;;
57107;SDS011;42987;52.916;6.542;2023-07-13T04:07:14;14.68;;;4.30;;
57107;SDS011;42987;52.916;6.542;2023-07-13T04:09:40;11.63;;;4.57;;
57107;SDS011;42987;52.916;6.542;2023-07-13T04:12:06;15.40;;;5.55;;
57107;SDS011;42987;52.916;6.542;2023-07-13T04:14:33;13.02;;;5.13;;
57107;SDS011;42987;52.916;6.542;2023-07-13T04:16:59;12.65;;;4.75;;
57107;SDS011;42987;52.916;6.542;2023-07-13T04:19:24;11.35;;;4.05;;
57107;SDS011;42987;52.916;6.542;2023-07-13T04:21:50;12.10;;;4.47;;
57107;SDS011;42987;52.916;6.542;2023-07-13T04:24:16;10.48;;;4.22;;
57107;SDS011;42987;52.916;6.542;2023-07-13T04:26:42;12.95;;;4.82;;
57107;SDS011;42987;52.916;6.542;2023-07-13T04:29:07;14.68;;;4.72;;
57107;SDS011;42987;52.916;6.542;2023-07-13T04:31:33;11.75;;;4.25;;
57107;SDS011;42987;52.916;6.542;2023-07-13T04:33:59;14.73;;;5.07;;
57107;SDS011;42987;52.916;6.542;2023-07-13T04:36:25;12.77;;;4.88;;
57107;SDS011;42987;52.916;6.542;2023-07-13T04:38:53;10.30;;;4.63;;
57107;SDS011;42987;52.916;6.542;2023-07-13T04:41:20;13.23;;;5.28;;
57107;SDS011;42987;52.916;6.542;2023-07-13T04:43:47;13.23;;;4.82;;
57107;SDS011;42987;52.916;6.542;2023-07-13T04:46:14;13.82;;;4.88;;
57107;SDS011;42987;52.916;6.542;2023-07-13T04:48:42;11.63;;;4.43;;
57107;SDS011;42987;52.916;6.542;2023-07-13T04:51:08;12.52;;;4.75;;
57107;SDS011;42987;52.916;6.542;2023-07-13T04:53:34;16.08;;;5.82;;
57107;SDS011;42987;52.916;6.542;2023-07-13T04:56:00;14.07;;;5.55;;
57107;SDS011;42987;52.916;6.542;2023-07-13T04:58:27;11.07;;;5.25;;
57107;SDS011;42987;52.916;6.542;2023-07-13T05:00:53;13.25;;;5.05;;
57107;SDS011;42987;52.916;6.542;2023-07-13T05:03:25;11.98;;;4.75;;
57107;SDS011;42987;52.916;6.542;2023-07-13T05:05:54;16.33;;;5.30;;
57107;SDS011;42987;52.916;6.542;2023-07-13T05:08:25;14.35;;;5.38;;
57107;SDS011;42987;52.916;6.542;2023-07-13T05:10:51;13.77;;;5.70;;
57107;SDS011;42987;52.916;6.542;2023-07-13T05:13:18;13.07;;;5.25;;
57107;SDS011;42987;52.916;6.542;2023-07-13T05:15:44;11.52;;;4.93;;
57107;SDS011;42987;52.916;6.542;2023-07-13T05:18:10;12.27;;;5.05;;
57107;SDS011;42987;52.916;6.542;2023-07-13T05:20:36;13.23;;;5.65;;
57107;SDS011;42987;52.916;6.542;2023-07-13T05:23:02;13.80;;;5.88;;
57107;SDS011;42987;52.916;6.542;2023-07-13T05:25:31;12.68;;;4.95;;
57107;SDS011;42987;52.916;6.542;2023-07-13T05:27:56;13.02;;;5.40;;
57107;SDS011;42987;52.916;6.542;2023-07-13T05:30:22;15.48;;;6.30;;
57107;SDS011;42987;52.916;6.542;2023-07-13T05:32:48;15.00;;;5.38;;
57107;SDS011;42987;52.916;6.542;2023-07-13T05:35:14;11.85;;;5.53;;
57107;SDS011;42987;52.916;6.542;2023-07-13T05:37:39;13.10;;;5.50;;
57107;SDS011;42987;52.916;6.542;2023-07-13T05:40:05;10.85;;;4.97;;
57107;SDS011;42987;52.916;6.542;2023-07-13T05:42:31;12.73;;;5.18;;
57107;SDS011;42987;52.916;6.542;2023-07-13T05:44:57;15.32;;;5.55;;
57107;SDS011;42987;52.916;6.542;2023-07-13T05:47:23;10.40;;;5.43;;
57107;SDS011;42987;52.916;6.542;2023-07-13T05:49:49;13.07;;;5.93;;
57107;SDS011;42987;52.916;6.542;2023-07-13T05:52:15;16.02;;;5.82;;
57107;SDS011;42987;52.916;6.542;2023-07-13T05:54:40;14.82;;;5.68;;
57107;SDS011;42987;52.916;6.542;2023-07-13T05:57:06;11.48;;;5.10;;
57107;SDS011;42987;52.916;6.542;2023-07-13T05:59:35;13.55;;;5.85;;
57107;SDS011;42987;52.916;6.542;2023-07-13T06:02:02;16.10;;;5.78;;
57107;SDS011;42987;52.916;6.542;2023-07-13T06:04:27;13.52;;;5.57;;
57107;SDS011;42987;52.916;6.542;2023-07-13T06:06:53;12.02;;;5.10;;
57107;SDS011;42987;52.916;6.542;2023-07-13T06:09:19;13.90;;;5.75;;
57107;SDS011;42987;52.916;6.542;2023-07-13T06:11:45;11.65;;;4.95;;
57107;SDS011;42987;52.916;6.542;2023-07-13T06:14:10;12.32;;;5.13;;
57107;SDS011;42987;52.916;6.542;2023-07-13T06:16:36;11.30;;;5.43;;
57107;SDS011;42987;52.916;6.542;2023-07-13T06:19:02;14.85;;;5.63;;
57107;SDS011;42987;52.916;6.542;2023-07-13T06:21:28;19.85;;;5.55;;
57107;SDS011;42987;52.916;6.542;2023-07-13T06:23:53;10.60;;;4.82;;
57107;SDS011;42987;52.916;6.542;2023-07-13T06:26:20;11.38;;;4.70;;
57107;SDS011;42987;52.916;6.542;2023-07-13T06:28:46;10.15;;;5.53;;
57107;SDS011;42987;52.916;6.542;2023-07-13T06:31:12;9.32;;;4.60;;
57107;SDS011;42987;52.916;6.542;2023-07-13T06:33:39;11.55;;;4.93;;
57107;SDS011;42987;52.916;6.542;2023-07-13T06:36:05;13.23;;;5.28;;
57107;SDS011;42987;52.916;6.542;2023-07-13T06:38:32;13.85;;;4.90;;
57107;SDS011;42987;52.916;6.542;2023-07-13T06:40:58;11.07;;;4.80;;
57107;SDS011;42987;52.916;6.542;2023-07-13T06:43:24;13.60;;;5.45;;
57107;SDS011;42987;52.916;6.542;2023-07-13T06:45:50;11.50;;;4.47;;
57107;SDS011;42987;52.916;6.542;2023-07-13T06:48:26;11.65;;;5.32;;
57107;SDS011;42987;52.916;6.542;2023-07-13T06:50:52;9.05;;;4.35;;
57107;SDS011;42987;52.916;6.542;2023-07-13T06:53:18;12.30;;;4.35;;
57107;SDS011;42987;52.916;6.542;2023-07-13T06:55:45;11.50;;;4.95;;
57107;SDS011;42987;52.916;6.542;2023-07-13T06:58:12;12.48;;;5.20;;
57107;SDS011;42987;52.916;6.542;2023-07-13T07:00:38;10.95;;;4.78;;
57107;SDS011;42987;52.916;6.542;2023-07-13T07:03:05;11.38;;;5.43;;
57107;SDS011;42987;52.916;6.542;2023-07-13T07:05:31;10.82;;;5.15;;
57107;SDS011;42987;52.916;6.542;2023-07-13T07:07:59;10.45;;;5.55;;
57107;SDS011;42987;52.916;6.542;2023-07-13T07:10:25;14.98;;;5.47;;
57107;SDS011;42987;52.916;6.542;2023-07-13T07:12:51;11.77;;;5.50;;
57107;SDS011;42987;52.916;6.542;2023-07-13T07:15:21;13.05;;;4.72;;
57107;SDS011;42987;52.916;6.542;2023-07-13T07:17:49;8.80;;;4.25;;
57107;SDS011;42987;52.916;6.542;2023-07-13T07:20:15;12.02;;;4.45;;
57107;SDS011;42987;52.916;6.542;2023-07-13T07:22:41;9.43;;;4.20;;
57107;SDS011;42987;52.916;6.542;2023-07-13T07:25:09;9.43;;;4.50;;
57107;SDS011;42987;52.916;6.542;2023-07-13T07:27:35;11.40;;;4.38;;
57107;SDS011;42987;52.916;6.542;2023-07-13T07:30:01;9.30;;;3.50;;
57107;SDS011;42987;52.916;6.542;2023-07-13T07:32:28;9.40;;;4.00;;
57107;SDS011;42987;52.916;6.542;2023-07-13T07:34:54;10.68;;;4.57;;
57107;SDS011;42987;52.916;6.542;2023-07-13T07:37:20;13.55;;;5.07;;
57107;SDS011;42987;52.916;6.542;2023-07-13T07:39:46;13.70;;;5.22;;
57107;SDS011;42987;52.916;6.542;2023-07-13T07:42:12;8.75;;;4.32;;
57107;SDS011;42987;52.916;6.542;2023-07-13T07:44:38;14.40;;;6.18;;
57107;SDS011;42987;52.916;6.542;2023-07-13T07:47:05;9.88;;;5.30;;
57107;SDS011;42987;52.916;6.542;2023-07-13T07:49:31;13.07;;;5.85;;
57107;SDS011;42987;52.916;6.542;2023-07-13T07:51:57;14.25;;;7.13;;
57107;SDS011;42987;52.916;6.542;2023-07-13T07:54:23;13.43;;;6.47;;
57107;SDS011;42987;52.916;6.542;2023-07-13T07:56:48;12.95;;;6.65;;
57107;SDS011;42987;52.916;6.542;2023-07-13T07:59:14;11.23;;;6.43;;
57107;SDS011;42987;52.916;6.542;2023-07-13T08:01:40;12.95;;;6.30;;
57107;SDS011;42987;52.916;6.542;2023-07-13T08:04:06;11.35;;;6.30;;
57107;SDS011;42987;52.916;6.542;2023-07-13T08:06:32;11.20;;;6.13;;
57107;SDS011;42987;52.916;6.542;2023-07-13T08:08:59;14.50;;;5.82;;
57107;SDS011;42987;52.916;6.542;2023-07-13T08:11:26;11.75;;;5.95;;
57107;SDS011;42987;52.916;6.542;2023-07-13T08:13:52;12.50;;;5.75;;
57107;SDS011;42987;52.916;6.542;2023-07-13T08:16:18;14.85;;;6.40;;
57107;SDS011;42987;52.916;6.542;2023-07-13T08:18:47;11.57;;;6.18;;
57107;SDS011;42987;52.916;6.542;2023-07-13T08:21:13;14.32;;;6.20;;
57107;SDS011;42987;52.916;6.542;2023-07-13T08:23:39;12.20;;;6.78;;
57107;SDS011;42987;52.916;6.542;2023-07-13T08:26:05;13.57;;;6.70;;
57107;SDS011;42987;52.916;6.542;2023-07-13T08:28:31;13.95;;;7.20;;
57107;SDS011;42987;52.916;6.542;2023-07-13T08:31:05;15.25;;;7.85;;
57107;SDS011;42987;52.916;6.542;2023-07-13T08:33:33;14.63;;;7.32;;
57107;SDS011;42987;52.916;6.542;2023-07-13T08:36:00;6.20;;;3.45;;
57107;SDS011;42987;52.916;6.542;2023-07-13T08:38:26;10.73;;;4.28;;
57107;SDS011;42987;52.916;6.542;2023-07-13T08:40:52;12.00;;;4.60;;
57107;SDS011;42987;52.916;6.542;2023-07-13T08:43:21;10.38;;;4.78;;
57107;SDS011;42987;52.916;6.542;2023-07-13T08:46:08;10.27;;;5.07;;
57107;SDS011;42987;52.916;6.542;2023-07-13T08:48:58;10.68;;;5.75;;
57107;SDS011;42987;52.916;6.542;2023-07-13T08:51:26;10.77;;;5.57;;
57107;SDS011;42987;52.916;6.542;2023-07-13T08:54:01;15.35;;;6.97;;
57107;SDS011;42987;52.916;6.542;2023-07-13T08:56:29;10.23;;;4.97;;
57107;SDS011;42987;52.916;6.542;2023-07-13T08:59:18;10.02;;;5.18;;
57107;SDS011;42987;52.916;6.542;2023-07-13T09:04:26;12.85;;;7.65;;
57107;SDS011;42987;52.916;6.542;2023-07-13T09:06:59;14.65;;;9.63;;
57107;SDS011;42987;52.916;6.542;2023-07-13T09:09:41;13.88;;;8.13;;
57107;SDS011;42987;52.916;6.542;2023-07-13T09:14:54;13.52;;;8.55;;
57107;SDS011;42987;52.916;6.542;2023-07-13T09:17:25;12.13;;;8.45;;
57107;SDS011;42987;52.916;6.542;2023-07-13T09:20:02;14.00;;;8.50;;
57107;SDS011;42987;52.916;6.542;2023-07-13T09:22:31;13.43;;;8.65;;
57107;SDS011;42987;52.916;6.542;2023-07-13T09:25:05;12.30;;;8.50;;
57107;SDS011;42987;52.916;6.542;2023-07-13T09:27:43;13.30;;;8.60;;
57107;SDS011;42987;52.916;6.542;2023-07-13T09:30:22;11.65;;;6.43;;
57107;SDS011;42987;52.916;6.542;2023-07-13T09:32:54;8.40;;;4.93;;
57107;SDS011;42987;52.916;6.542;2023-07-13T09:35:26;7.15;;;3.67;;
57107;SDS011;42987;52.916;6.542;2023-07-13T09:37:57;5.30;;;3.78;;
57107;SDS011;42987;52.916;6.542;2023-07-13T09:46:56;5.95;;;3.40;;
57107;SDS011;42987;52.916;6.542;2023-07-13T09:49:25;5.75;;;3.58;;
57107;SDS011;42987;52.916;6.542;2023-07-13T09:51:59;5.28;;;4.07;;
57107;SDS011;42987;52.916;6.542;2023-07-13T09:54:32;5.32;;;3.20;;
57107;SDS011;42987;52.916;6.542;2023-07-13T09:57:00;5.00;;;3.88;;
57107;SDS011;42987;52.916;6.542;2023-07-13T09:59:35;5.55;;;3.78;;
57107;SDS011;42987;52.916;6.542;2023-07-13T10:05:16;7.43;;;3.45;;
57107;SDS011;42987;52.916;6.542;2023-07-13T10:07:44;3.60;;;2.40;;
57107;SDS011;42987;52.916;6.542;2023-07-13T10:10:18;3.30;;;2.28;;
57107;SDS011;42987;52.916;6.542;2023-07-13T10:12:46;4.25;;;2.42;;
57107;SDS011;42987;52.916;6.542;2023-07-13T10:15:18;5.90;;;2.60;;
57107;SDS011;42987;52.916;6.542;2023-07-13T10:17:49;4.53;;;2.65;;
57107;SDS011;42987;52.916;6.542;2023-07-13T10:20:21;5.93;;;2.80;;
57107;SDS011;42987;52.916;6.542;2023-07-13T10:23:00;5.57;;;2.70;;
57107;SDS011;42987;52.916;6.542;2023-07-13T10:25:34;6.63;;;2.88;;
57107;SDS011;42987;52.916;6.542;2023-07-13T10:28:29;4.45;;;3.10;;
57107;SDS011;42987;52.916;6.542;2023-07-13T10:30:57;5.63;;;3.20;;
57107;SDS011;42987;52.916;6.542;2023-07-13T10:33:25;6.25;;;3.25;;
57107;SDS011;42987;52.916;6.542;2023-07-13T10:35:54;6.63;;;4.38;;
57107;SDS011;42987;52.916;6.542;2023-07-13T10:38:47;11.20;;;4.35;;
57107;SDS011;42987;52.916;6.542;2023-07-13T10:41:17;6.75;;;4.47;;
57107;SDS011;42987;52.916;6.542;2023-07-13T10:43:52;9.75;;;5.07;;
57107;SDS011;42987;52.916;6.542;2023-07-13T10:46:21;8.55;;;4.55;;
57107;SDS011;42987;52.916;6.542;2023-07-13T10:48:53;8.70;;;4.13;;
57107;SDS011;42987;52.916;6.542;2023-07-13T10:51:24;9.07;;;4.35;;
57107;SDS011;42987;52.916;6.542;2023-07-13T10:59:43;6.63;;;3.90;;
57107;SDS011;42987;52.916;6.542;2023-07-13T11:02:27;5.15;;;3.80;;
57107;SDS011;42987;52.916;6.542;2023-07-13T11:04:54;5.13;;;2.20;;
57107;SDS011;42987;52.916;6.542;2023-07-13T11:07:26;4.22;;;1.80;;
57107;SDS011;42987;52.916;6.542;2023-07-13T11:09:54;4.63;;;1.70;;
57107;SDS011;42987;52.916;6.542;2023-07-13T11:12:48;5.82;;;2.10;;
57107;SDS011;42987;52.916;6.542;2023-07-13T11:15:30;5.38;;;1.77;;
57107;SDS011;42987;52.916;6.542;2023-07-13T11:18:12;3.97;;;2.05;;
57107;SDS011;42987;52.916;6.542;2023-07-13T11:20:46;4.95;;;1.98;;
57107;SDS011;42987;52.916;6.542;2023-07-13T11:25:41;5.32;;;1.90;;
57107;SDS011;42987;52.916;6.542;2023-07-13T11:35:45;5.00;;;2.00;;
57107;SDS011;42987;52.916;6.542;2023-07-13T11:38:33;4.07;;;1.80;;
57107;SDS011;42987;52.916;6.542;2023-07-13T11:43:55;5.95;;;2.00;;
57107;SDS011;42987;52.916;6.542;2023-07-13T11:46:30;5.88;;;2.78;;
57107;SDS011;42987;52.916;6.542;2023-07-13T11:48:55;7.20;;;3.08;;
57107;SDS011;42987;52.916;6.542;2023-07-13T11:51:33;7.05;;;3.58;;
57107;SDS011;42987;52.916;6.542;2023-07-13T11:54:05;5.20;;;3.20;;
57107;SDS011;42987;52.916;6.542;2023-07-13T11:56:50;6.43;;;3.70;;
57107;SDS011;42987;52.916;6.542;2023-07-13T11:59:16;4.25;;;2.55;;
57107;SDS011;42987;52.916;6.542;2023-07-13T12:01:44;4.82;;;2.10;;
57107;SDS011;42987;52.916;6.542;2023-07-13T12:04:25;3.25;;;1.90;;
57107;SDS011;42987;52.916;6.542;2023-07-13T12:06:58;5.40;;;1.88;;
57107;SDS011;42987;52.916;6.542;2023-07-13T12:09:29;3.40;;;1.77;;
57107;SDS011;42987;52.916;6.542;2023-07-13T12:11:56;5.13;;;1.88;;
57107;SDS011;42987;52.916;6.542;2023-07-13T12:14:25;5.55;;;1.67;;
57107;SDS011;42987;52.916;6.542;2023-07-13T12:16:51;5.22;;;1.60;;
57107;SDS011;42987;52.916;6.542;2023-07-13T12:21:53;5.85;;;1.73;;
57107;SDS011;42987;52.916;6.542;2023-07-13T12:24:22;5.75;;;2.38;;
57107;SDS011;42987;52.916;6.542;2023-07-13T12:29:29;6.13;;;2.00;;
57107;SDS011;42987;52.916;6.542;2023-07-13T12:31:56;4.70;;;1.90;;
57107;SDS011;42987;52.916;6.542;2023-07-13T12:34:23;3.75;;;1.67;;
57107;SDS011;42987;52.916;6.542;2023-07-13T12:39:19;4.10;;;1.42;;
57107;SDS011;42987;52.916;6.542;2023-07-13T12:41:53;6.88;;;1.75;;
57107;SDS011;42987;52.916;6.542;2023-07-13T12:44:34;5.80;;;1.50;;
57107;SDS011;42987;52.916;6.542;2023-07-13T12:47:09;4.32;;;1.52;;
57107;SDS011;42987;52.916;6.542;2023-07-13T12:49:43;3.75;;;1.30;;
57107;SDS011;42987;52.916;6.542;2023-07-13T12:52:21;4.32;;;1.52;;
57107;SDS011;42987;52.916;6.542;2023-07-13T12:54:56;3.25;;;1.20;;
57107;SDS011;42987;52.916;6.542;2023-07-13T12:57:25;4.22;;;1.60;;
57107;SDS011;42987;52.916;6.542;2023-07-13T12:59:52;3.60;;;1.45;;
57107;SDS011;42987;52.916;6.542;2023-07-13T13:02:29;5.90;;;1.70;;
57107;SDS011;42987;52.916;6.542;2023-07-13T13:04:57;5.47;;;1.60;;
57107;SDS011;42987;52.916;6.542;2023-07-13T13:07:24;4.22;;;1.38;;
57107;SDS011;42987;52.916;6.542;2023-07-13T13:09:50;4.07;;;1.60;;
57107;SDS011;42987;52.916;6.542;2023-07-13T13:12:18;2.55;;;0.80;;
57107;SDS011;42987;52.916;6.542;2023-07-13T13:14:44;3.83;;;1.40;;
57107;SDS011;42987;52.916;6.542;2023-07-13T13:17:20;4.30;;;1.20;;
57107;SDS011;42987;52.916;6.542;2023-07-13T13:19:50;5.32;;;1.30;;
57107;SDS011;42987;52.916;6.542;2023-07-13T13:22:19;3.33;;;1.40;;
57107;SDS011;42987;52.916;6.542;2023-07-13T13:24:45;3.75;;;1.30;;
57107;SDS011;42987;52.916;6.542;2023-07-13T13:27:14;4.38;;;0.95;;
57107;SDS011;42987;52.916;6.542;2023-07-13T13:29:42;3.17;;;1.08;;
57107;SDS011;42987;52.916;6.542;2023-07-13T13:32:13;4.43;;;1.60;;
57107;SDS011;42987;52.916;6.542;2023-07-13T13:37:22;3.47;;;1.27;;
57107;SDS011;42987;52.916;6.542;2023-07-13T13:39:50;5.53;;;1.50;;
57107;SDS011;42987;52.916;6.542;2023-07-13T13:42:17;4.05;;;1.50;;
57107;SDS011;42987;52.916;6.542;2023-07-13T13:44:42;4.32;;;1.90;;
57107;SDS011;42987;52.916;6.542;2023-07-13T13:47:18;5.75;;;1.70;;
57107;SDS011;42987;52.916;6.542;2023-07-13T13:49:48;4.65;;;1.15;;
57107;SDS011;42987;52.916;6.542;2023-07-13T13:52:14;3.72;;;1.20;;
57107;SDS011;42987;52.916;6.542;2023-07-13T13:54:40;2.88;;;1.20;;
57107;SDS011;42987;52.916;6.542;2023-07-13T13:57:07;4.18;;;1.50;;
57107;SDS011;42987;52.916;6.542;2023-07-13T13:59:33;7.18;;;1.50;;
57107;SDS011;42987;52.916;6.542;2023-07-13T14:02:07;5.32;;;1.40;;
57107;SDS011;42987;52.916;6.542;2023-07-13T14:05:03;4.82;;;1.63;;
57107;SDS011;42987;52.916;6.542;2023-07-13T14:07:33;4.35;;;1.30;;
57107;SDS011;42987;52.916;6.542;2023-07-13T14:09:58;2.13;;;1.27;;
57107;SDS011;42987;52.916;6.542;2023-07-13T14:12:26;5.20;;;1.52;;
57107;SDS011;42987;52.916;6.542;2023-07-13T14:14:56;4.45;;;1.40;;
57107;SDS011;42987;52.916;6.542;2023-07-13T14:17:24;3.15;;;1.45;;
57107;SDS011;42987;52.916;6.542;2023-07-13T14:19:52;4.45;;;1.55;;
57107;SDS011;42987;52.916;6.542;2023-07-13T14:22:25;5.65;;;1.38;;
57107;SDS011;42987;52.916;6.542;2023-07-13T14:24:52;4.13;;;1.30;;
57107;SDS011;42987;52.916;6.542;2023-07-13T14:27:19;5.88;;;1.85;;
57107;SDS011;42987;52.916;6.542;2023-07-13T14:29:46;4.07;;;1.17;;
57107;SDS011;42987;52.916;6.542;2023-07-13T14:32:12;4.75;;;1.60;;
57107;SDS011;42987;52.916;6.542;2023-07-13T14:34:38;4.05;;;1.58;;
57107;SDS011;42987;52.916;6.542;2023-07-13T14:37:05;6.40;;;1.63;;
57107;SDS011;42987;52.916;6.542;2023-07-13T14:39:34;4.70;;;1.52;;
57107;SDS011;42987;52.916;6.542;2023-07-13T14:42:00;3.67;;;1.50;;
57107;SDS011;42987;52.916;6.542;2023-07-13T14:44:27;5.78;;;2.03;;
57107;SDS011;42987;52.916;6.542;2023-07-13T14:46:55;6.22;;;1.75;;
57107;SDS011;42987;52.916;6.542;2023-07-13T14:51:59;5.30;;;1.50;;
57107;SDS011;42987;52.916;6.542;2023-07-13T14:54:28;5.65;;;1.80;;
57107;SDS011;42987;52.916;6.542;2023-07-13T14:56:54;4.82;;;1.63;;
57107;SDS011;42987;52.916;6.542;2023-07-13T14:59:20;4.32;;;1.80;;
57107;SDS011;42987;52.916;6.542;2023-07-13T15:01:46;6.15;;;1.65;;
57107;SDS011;42987;52.916;6.542;2023-07-13T15:04:14;6.45;;;1.67;;
57107;SDS011;42987;52.916;6.542;2023-07-13T15:09:23;3.28;;;1.30;;
57107;SDS011;42987;52.916;6.542;2023-07-13T15:11:57;3.97;;;1.60;;
57107;SDS011;42987;52.916;6.542;2023-07-13T15:14:24;4.40;;;1.60;;
57107;SDS011;42987;52.916;6.542;2023-07-13T15:16:51;3.53;;;1.60;;
57107;SDS011;42987;52.916;6.542;2023-07-13T15:19:19;6.18;;;2.05;;
57107;SDS011;42987;52.916;6.542;2023-07-13T15:21:46;5.07;;;1.70;;
57107;SDS011;42987;52.916;6.542;2023-07-13T15:24:13;6.68;;;1.70;;
57107;SDS011;42987;52.916;6.542;2023-07-13T15:26:39;4.50;;;1.60;;
57107;SDS011;42987;52.916;6.542;2023-07-13T15:29:08;7.78;;;1.75;;
57107;SDS011;42987;52.916;6.542;2023-07-13T15:31:33;6.43;;;2.22;;
57107;SDS011;42987;52.916;6.542;2023-07-13T15:34:03;6.32;;;1.55;;
57107;SDS011;42987;52.916;6.542;2023-07-13T15:36:35;5.85;;;1.50;;
57107;SDS011;42987;52.916;6.542;2023-07-13T15:39:01;5.72;;;1.98;;
57107;SDS011;42987;52.916;6.542;2023-07-13T15:41:27;6.25;;;1.98;;
57107;SDS011;42987;52.916;6.542;2023-07-13T15:43:55;5.47;;;1.80;;